createdAt,value
2023-05-25T00:01:43.965Z,13.57
2023-05-25T00:04:11.638Z,15.18
2023-05-25T00:06:41.153Z,15.85
2023-05-25T00:09:08.422Z,15.27
2023-05-25T00:11:35.490Z,14.13
2023-05-25T00:14:02.367Z,14.50
2023-05-25T00:16:29.187Z,16.15
2023-05-25T00:18:57.635Z,15.63
2023-05-25T00:21:25.770Z,14.90
2023-05-25T00:23:52.741Z,15.32
2023-05-25T00:26:19.514Z,14.57
2023-05-25T00:28:46.384Z,15.55
2023-05-25T00:31:13.315Z,15.10
2023-05-25T00:33:40.454Z,15.13
2023-05-25T00:36:08.854Z,14.40
2023-05-25T00:38:36.640Z,15.65
2023-05-25T00:41:06.164Z,15.40
2023-05-25T00:43:33.240Z,16.17
2023-05-25T00:46:00.614Z,16.20
2023-05-25T00:48:27.573Z,16.90
2023-05-25T00:50:58.128Z,15.98
2023-05-25T00:53:27.049Z,16.10
2023-05-25T00:56:23.945Z,16.13
2023-05-25T00:58:57.135Z,17.33
2023-05-25T01:03:54.153Z,16.05
2023-05-25T01:06:23.587Z,16.65
2023-05-25T01:08:54.125Z,16.75
2023-05-25T01:11:27.082Z,16.48
2023-05-25T01:13:54.750Z,17.52
2023-05-25T01:16:22.530Z,18.08
2023-05-25T01:18:52.832Z,16.45
2023-05-25T01:21:31.736Z,17.25
2023-05-25T01:24:12.869Z,17.27
2023-05-25T01:26:48.777Z,18.02
2023-05-25T01:29:19.107Z,16.70
2023-05-25T01:31:47.434Z,18.40
2023-05-25T01:34:15.260Z,17.83
2023-05-25T01:36:42.481Z,19.25
2023-05-25T01:39:11.256Z,18.77
2023-05-25T01:41:38.579Z,17.77
2023-05-25T01:44:07.842Z,18.00
2023-05-25T01:46:39.687Z,18.00
2023-05-25T01:49:22.977Z,18.00
2023-05-25T01:52:26.554Z,17.63
2023-05-25T01:55:22.480Z,16.90
2023-05-25T01:57:52.905Z,17.20
2023-05-25T02:00:21.427Z,17.92
2023-05-25T02:02:50.501Z,18.05
2023-05-25T02:05:20.219Z,17.50
2023-05-25T02:07:47.145Z,17.48
2023-05-25T02:10:14.040Z,16.73
2023-05-25T02:12:41.162Z,17.33
2023-05-25T02:15:08.679Z,16.95
2023-05-25T02:17:37.395Z,17.15
2023-05-25T02:20:25.230Z,16.95
2023-05-25T02:22:52.346Z,16.92
2023-05-25T02:25:19.197Z,16.75
2023-05-25T02:27:46.602Z,15.88
2023-05-25T02:30:13.793Z,16.52
2023-05-25T02:33:05.672Z,16.23
2023-05-25T02:35:33.441Z,16.13
2023-05-25T02:38:01.908Z,16.50
2023-05-25T02:40:30.230Z,14.45
2023-05-25T02:42:57.095Z,14.25
2023-05-25T02:45:24.283Z,14.65
2023-05-25T02:47:51.305Z,14.73
2023-05-25T02:50:19.620Z,14.60
2023-05-25T02:52:49.290Z,13.93
2023-05-25T02:55:18.780Z,13.15
2023-05-25T02:57:47.636Z,12.77
2023-05-25T03:00:28.835Z,12.10
2023-05-25T03:02:55.946Z,14.02
2023-05-25T03:05:23.052Z,12.82
2023-05-25T03:07:49.931Z,12.63
2023-05-25T03:10:16.805Z,12.85
2023-05-25T03:12:44.364Z,11.55
2023-05-25T03:15:16.012Z,11.57
2023-05-25T03:17:43.508Z,10.32
2023-05-25T03:20:11.833Z,12.23
2023-05-25T03:22:43.238Z,11.32
2023-05-25T03:25:13.307Z,11.85
2023-05-25T03:27:40.640Z,11.25
2023-05-25T03:30:09.259Z,11.18
2023-05-25T03:32:36.491Z,10.65
2023-05-25T03:35:05.638Z,10.63
2023-05-25T03:37:33.091Z,10.88
2023-05-25T03:39:59.927Z,11.40
2023-05-25T03:42:26.922Z,10.30
2023-05-25T03:44:54.071Z,11.40
2023-05-25T03:47:20.987Z,10.45
2023-05-25T03:49:48.103Z,10.45
2023-05-25T03:52:15.011Z,11.02
2023-05-25T03:54:42.171Z,9.68
2023-05-25T03:57:12.052Z,10.85
2023-05-25T03:59:38.905Z,10.75
2023-05-25T04:02:05.977Z,10.63
2023-05-25T04:04:32.914Z,10.93
2023-05-25T04:06:59.727Z,11.07
2023-05-25T04:09:26.551Z,10.73
2023-05-25T04:11:53.326Z,10.20
2023-05-25T04:14:21.654Z,10.85
2023-05-25T04:16:49.140Z,10.85
2023-05-25T04:19:16.603Z,11.07
2023-05-25T04:21:43.588Z,10.20
2023-05-25T04:24:11.438Z,11.10
2023-05-25T04:26:39.562Z,10.57
2023-05-25T04:29:07.158Z,10.65
2023-05-25T04:31:49.752Z,10.63
2023-05-25T04:34:33.927Z,11.18
2023-05-25T04:37:09.149Z,10.50
2023-05-25T04:39:37.020Z,10.93
2023-05-25T04:42:04.933Z,10.95
2023-05-25T04:44:34.047Z,10.70
2023-05-25T04:47:02.666Z,10.65
2023-05-25T04:49:32.234Z,10.10
2023-05-25T04:51:59.178Z,10.23
2023-05-25T04:54:28.996Z,11.20
2023-05-25T04:56:58.572Z,10.65
2023-05-25T04:59:25.791Z,10.32
2023-05-25T05:01:52.831Z,11.25
2023-05-25T05:04:19.906Z,10.93
2023-05-25T05:06:49.705Z,11.00
2023-05-25T05:09:21.650Z,10.35
2023-05-25T05:11:49.282Z,11.48
2023-05-25T05:14:17.138Z,11.40
2023-05-25T05:16:45.716Z,11.23
2023-05-25T05:19:13.975Z,11.55
2023-05-25T05:21:41.257Z,11.00
2023-05-25T05:24:08.966Z,11.82
2023-05-25T05:26:48.159Z,11.50
2023-05-25T05:29:26.942Z,11.30
2023-05-25T05:31:56.046Z,10.88
2023-05-25T05:34:23.018Z,10.43
2023-05-25T05:36:58.124Z,10.40
2023-05-25T05:39:27.133Z,9.05
2023-05-25T05:41:54.749Z,9.40
2023-05-25T05:44:24.082Z,9.35
2023-05-25T05:47:01.344Z,8.80
2023-05-25T05:49:30.991Z,8.63
2023-05-25T05:51:59.472Z,9.20
2023-05-25T05:54:30.347Z,9.85
2023-05-25T05:57:01.826Z,9.25
2023-05-25T05:59:29.941Z,8.68
2023-05-25T06:01:57.148Z,9.40
2023-05-25T06:04:28.648Z,9.40
2023-05-25T06:06:56.131Z,8.82
2023-05-25T06:09:22.938Z,8.57
2023-05-25T06:11:49.903Z,8.60
2023-05-25T06:14:17.811Z,9.07
2023-05-25T06:16:45.017Z,8.00
2023-05-25T06:19:12.406Z,8.57
2023-05-25T06:21:39.271Z,9.55
2023-05-25T06:24:06.922Z,8.13
2023-05-25T06:26:34.317Z,7.60
2023-05-25T06:29:01.931Z,8.30
2023-05-25T06:31:28.876Z,8.18
2023-05-25T06:33:56.218Z,8.57
2023-05-25T06:36:23.960Z,8.38
2023-05-25T06:38:51.460Z,8.45
2023-05-25T06:41:19.994Z,7.68
2023-05-25T06:43:47.375Z,9.02
2023-05-25T06:46:22.339Z,8.13
2023-05-25T06:48:49.272Z,9.05
2023-05-25T06:51:16.283Z,8.45
2023-05-25T06:53:43.849Z,8.43
2023-05-25T06:56:11.681Z,8.13
2023-05-25T06:58:38.582Z,8.00
2023-05-25T07:01:06.216Z,8.13
2023-05-25T07:03:33.258Z,8.25
2023-05-25T07:06:00.236Z,8.48
2023-05-25T07:08:27.088Z,7.95
2023-05-25T07:10:54.042Z,7.78
2023-05-25T07:13:21.307Z,8.10
2023-05-25T07:15:48.645Z,7.43
2023-05-25T07:18:16.320Z,8.20
2023-05-25T07:20:44.011Z,8.45
2023-05-25T07:23:11.737Z,8.35
2023-05-25T07:25:39.216Z,8.02
2023-05-25T07:28:06.870Z,8.30
2023-05-25T07:30:34.091Z,8.55
2023-05-25T07:33:02.246Z,8.35
2023-05-25T07:35:29.444Z,7.95
2023-05-25T07:38:05.524Z,7.97
2023-05-25T07:40:32.735Z,7.90
2023-05-25T07:42:59.671Z,7.10
2023-05-25T07:45:26.672Z,8.05
2023-05-25T07:47:53.774Z,8.00
2023-05-25T07:50:20.678Z,7.30
2023-05-25T07:52:47.738Z,7.68
2023-05-25T07:55:14.877Z,7.07
2023-05-25T07:57:41.981Z,7.75
2023-05-25T08:00:09.797Z,7.80
2023-05-25T08:02:43.632Z,7.30
2023-05-25T08:05:10.780Z,7.80
2023-05-25T08:07:39.582Z,6.90
2023-05-25T08:10:08.709Z,8.00
2023-05-25T08:12:47.895Z,7.75
2023-05-25T08:15:17.508Z,7.40
2023-05-25T08:17:44.891Z,8.50
2023-05-25T08:20:12.632Z,8.25
2023-05-25T08:22:40.705Z,7.85
2023-05-25T08:25:08.240Z,7.70
2023-05-25T08:27:36.225Z,8.93
2023-05-25T08:30:06.186Z,8.95
2023-05-25T08:32:33.480Z,8.48
2023-05-25T08:35:05.704Z,8.45
2023-05-25T08:37:33.506Z,8.88
2023-05-25T08:40:02.758Z,8.63
2023-05-25T08:42:33.315Z,8.38
2023-05-25T08:45:02.404Z,8.10
2023-05-25T08:50:02.058Z,7.60
2023-05-25T08:52:34.408Z,8.35
2023-05-25T08:55:05.843Z,7.90
2023-05-25T08:57:58.615Z,7.68
2023-05-25T09:00:32.858Z,9.13
2023-05-25T09:03:09.735Z,8.07
2023-05-25T09:05:38.110Z,9.15
2023-05-25T09:08:06.928Z,8.45
2023-05-25T09:10:35.346Z,8.75
2023-05-25T09:13:16.733Z,8.65
2023-05-25T09:15:48.356Z,8.45
2023-05-25T09:18:15.303Z,8.95
2023-05-25T09:20:44.344Z,9.63
2023-05-25T09:23:14.567Z,8.57
2023-05-25T09:28:27.586Z,9.52
2023-05-25T09:30:59.296Z,10.38
2023-05-25T09:33:47.100Z,9.18
2023-05-25T09:36:16.906Z,9.45
2023-05-25T09:38:44.333Z,9.23
2023-05-25T09:41:12.641Z,8.98
2023-05-25T09:43:46.731Z,9.93
2023-05-25T09:46:21.716Z,9.93
2023-05-25T09:48:50.355Z,8.20
2023-05-25T09:51:17.535Z,9.30
2023-05-25T09:53:44.417Z,8.75
2023-05-25T09:56:13.819Z,9.75
2023-05-25T09:58:41.238Z,8.45
2023-05-25T10:01:08.766Z,10.50
2023-05-25T10:03:36.268Z,9.50
2023-05-25T10:06:04.640Z,8.68
2023-05-25T10:08:31.896Z,9.68
2023-05-25T10:10:59.007Z,9.70
2023-05-25T10:13:29.319Z,9.63
2023-05-25T10:15:57.543Z,9.75
2023-05-25T10:18:32.453Z,9.27
2023-05-25T10:21:04.958Z,9.43
2023-05-25T10:26:18.691Z,9.48
2023-05-25T10:28:47.892Z,8.63
2023-05-25T10:31:16.637Z,9.85
2023-05-25T10:33:47.546Z,9.82
2023-05-25T10:36:19.589Z,9.07
2023-05-25T10:38:47.539Z,8.90
2023-05-25T10:41:16.129Z,8.75
2023-05-25T10:43:44.015Z,9.23
2023-05-25T10:46:12.720Z,9.57
2023-05-25T10:48:45.160Z,9.43
2023-05-25T10:51:12.325Z,8.20
2023-05-25T10:53:39.931Z,8.63
2023-05-25T10:56:08.745Z,9.23
2023-05-25T10:58:36.662Z,9.40
2023-05-25T11:01:11.517Z,8.80
2023-05-25T11:03:56.745Z,9.27
2023-05-25T11:06:48.300Z,8.80
2023-05-25T11:09:38.877Z,8.60
2023-05-25T11:12:09.576Z,8.55
2023-05-25T11:14:44.879Z,9.52
2023-05-25T11:17:29.722Z,8.75
2023-05-25T11:20:02.386Z,8.25
2023-05-25T11:22:32.065Z,8.00
2023-05-25T11:25:00.748Z,8.13
2023-05-25T11:27:31.849Z,8.80
2023-05-25T11:30:02.330Z,8.52
2023-05-25T11:32:32.431Z,8.07
2023-05-25T11:34:59.617Z,8.77
2023-05-25T11:37:31.579Z,8.80
2023-05-25T11:40:06.624Z,9.23
2023-05-25T11:42:33.819Z,7.88
2023-05-25T11:45:03.704Z,8.55
2023-05-25T11:47:33.629Z,8.45
2023-05-25T11:50:01.528Z,8.68
2023-05-25T11:52:30.387Z,8.30
2023-05-25T11:54:57.488Z,9.60
2023-05-25T11:57:25.794Z,9.15
2023-05-25T11:59:57.387Z,8.57
2023-05-25T12:02:25.049Z,8.25
2023-05-25T12:05:04.454Z,8.43
2023-05-25T12:07:34.730Z,8.35
2023-05-25T12:10:12.773Z,9.35
2023-05-25T12:12:39.909Z,8.25
2023-05-25T12:15:16.694Z,8.80
2023-05-25T12:17:45.969Z,8.98
2023-05-25T12:20:15.400Z,9.45
2023-05-25T12:22:44.889Z,8.30
2023-05-25T12:25:16.034Z,8.57
2023-05-25T12:27:44.025Z,8.88
2023-05-25T12:30:13.193Z,7.93
2023-05-25T12:33:00.944Z,8.65
2023-05-25T12:35:50.398Z,7.68
2023-05-25T12:38:22.020Z,8.40
2023-05-25T12:41:07.373Z,8.50
2023-05-25T12:43:44.092Z,9.05
2023-05-25T12:46:23.934Z,8.80
2023-05-25T12:48:50.992Z,8.27
2023-05-25T12:51:19.725Z,8.43
2023-05-25T12:53:53.161Z,8.35
2023-05-25T12:56:22.604Z,7.85
2023-05-25T12:58:49.601Z,7.65
2023-05-25T13:01:16.735Z,8.88
2023-05-25T13:03:43.545Z,8.05
2023-05-25T13:06:10.523Z,7.78
2023-05-25T13:08:37.618Z,8.07
2023-05-25T13:11:05.212Z,8.32
2023-05-25T13:13:32.255Z,8.60
2023-05-25T13:15:59.196Z,7.60
2023-05-25T13:18:26.628Z,8.25
2023-05-25T13:20:56.366Z,7.63
2023-05-25T13:23:24.133Z,8.25
2023-05-25T13:25:51.104Z,7.93
2023-05-25T13:28:17.937Z,8.63
2023-05-25T13:30:44.958Z,7.53
2023-05-25T13:33:12.160Z,8.38
2023-05-25T13:35:46.383Z,8.43
2023-05-25T13:38:15.222Z,8.88
2023-05-25T13:40:44.450Z,7.78
2023-05-25T13:43:13.258Z,8.13
2023-05-25T13:45:40.168Z,8.05
2023-05-25T13:48:07.465Z,7.65
2023-05-25T13:50:34.502Z,6.88
2023-05-25T13:53:01.454Z,7.03
2023-05-25T13:55:28.351Z,7.97
2023-05-25T13:57:58.360Z,7.68
2023-05-25T14:00:25.232Z,6.90
2023-05-25T14:03:18.516Z,7.72
2023-05-25T14:05:46.072Z,6.97
2023-05-25T14:08:16.217Z,6.68
2023-05-25T14:11:09.126Z,6.90
2023-05-25T14:13:41.850Z,6.20
2023-05-25T14:16:09.560Z,6.25
2023-05-25T14:18:36.512Z,7.07
2023-05-25T14:21:03.585Z,7.28
2023-05-25T14:23:30.661Z,6.47
2023-05-25T14:25:57.574Z,6.43
2023-05-25T14:28:24.418Z,6.40
2023-05-25T14:30:51.496Z,7.07
2023-05-25T14:33:18.411Z,7.13
2023-05-25T14:35:45.626Z,6.65
2023-05-25T14:38:14.234Z,6.50
2023-05-25T14:40:41.041Z,6.60
2023-05-25T14:43:07.981Z,5.75
2023-05-25T14:45:34.859Z,6.25
2023-05-25T14:48:15.061Z,6.05
2023-05-25T14:50:44.593Z,6.38
2023-05-25T14:53:12.005Z,5.55
2023-05-25T14:55:43.955Z,5.68
2023-05-25T14:58:11.369Z,6.15
2023-05-25T15:00:41.081Z,6.20
2023-05-25T15:03:08.383Z,6.15
2023-05-25T15:05:35.601Z,6.68
2023-05-25T15:08:03.058Z,5.80
2023-05-25T15:10:31.237Z,5.97
2023-05-25T15:12:58.733Z,6.00
2023-05-25T15:15:25.517Z,6.38
2023-05-25T15:17:52.418Z,6.43
2023-05-25T15:20:19.493Z,6.15
2023-05-25T15:22:47.797Z,6.78
2023-05-25T15:25:19.043Z,5.32
2023-05-25T15:27:51.955Z,6.43
2023-05-25T15:30:19.432Z,6.38
2023-05-25T15:32:48.664Z,5.72
2023-05-25T15:35:15.735Z,5.93
2023-05-25T15:37:43.983Z,6.38
2023-05-25T15:40:13.539Z,5.85
2023-05-25T15:42:41.040Z,6.00
2023-05-25T15:45:08.552Z,5.82
2023-05-25T15:47:35.451Z,6.13
2023-05-25T15:50:02.360Z,6.05
2023-05-25T15:52:31.172Z,5.97
2023-05-25T15:54:58.596Z,5.88
2023-05-25T15:57:25.553Z,5.95
2023-05-25T15:59:52.496Z,6.68
2023-05-25T16:02:19.417Z,6.32
2023-05-25T16:04:46.363Z,6.10
2023-05-25T16:07:14.294Z,6.38
2023-05-25T16:09:41.175Z,5.53
2023-05-25T16:12:08.097Z,5.95
2023-05-25T16:14:35.113Z,6.38
2023-05-25T16:17:03.072Z,6.45
2023-05-25T16:19:30.001Z,7.25
2023-05-25T16:21:57.976Z,6.57
2023-05-25T16:24:27.099Z,6.68
2023-05-25T16:26:54.229Z,6.68
2023-05-25T16:29:23.649Z,6.85
2023-05-25T16:31:51.661Z,6.30
2023-05-25T16:34:18.548Z,5.78
2023-05-25T16:36:45.380Z,6.28
2023-05-25T16:39:12.213Z,5.68
2023-05-25T16:41:43.876Z,6.65
2023-05-25T16:44:11.784Z,6.20
2023-05-25T16:46:39.234Z,6.20
2023-05-25T16:49:06.597Z,6.43
2023-05-25T16:51:33.472Z,6.55
2023-05-25T16:54:00.335Z,6.82
2023-05-25T16:56:27.364Z,6.43
2023-05-25T16:58:55.103Z,6.88
2023-05-25T17:01:22.287Z,5.78
2023-05-25T17:03:49.451Z,6.30
2023-05-25T17:06:16.465Z,6.32
2023-05-25T17:08:43.394Z,6.53
2023-05-25T17:11:10.783Z,6.38
2023-05-25T17:13:38.100Z,6.10
2023-05-25T17:16:05.090Z,6.32
2023-05-25T17:18:32.052Z,6.38
2023-05-25T17:20:58.975Z,6.65
2023-05-25T17:23:25.949Z,6.60
2023-05-25T17:25:53.141Z,6.32
2023-05-25T17:28:20.257Z,6.20
2023-05-25T17:30:48.596Z,6.03
2023-05-25T17:33:16.268Z,5.95
2023-05-25T17:35:43.310Z,6.03
2023-05-25T17:38:10.892Z,6.28
2023-05-25T17:40:37.724Z,6.32
2023-05-25T17:43:04.602Z,6.03
2023-05-25T17:45:31.430Z,5.90
2023-05-25T17:47:58.907Z,6.45
2023-05-25T17:50:25.953Z,6.47
2023-05-25T17:52:52.774Z,6.15
2023-05-25T17:55:20.814Z,6.03
2023-05-25T17:57:48.379Z,6.57
2023-05-25T18:00:15.921Z,5.97
2023-05-25T18:02:44.191Z,6.13
2023-05-25T18:05:11.121Z,5.55
2023-05-25T18:07:37.983Z,5.70
2023-05-25T18:10:05.452Z,6.10
2023-05-25T18:12:33.185Z,6.20
2023-05-25T18:15:00.177Z,6.68
2023-05-25T18:17:27.274Z,5.55
2023-05-25T18:19:55.243Z,6.55
2023-05-25T18:22:22.148Z,5.35
2023-05-25T18:24:49.028Z,6.15
2023-05-25T18:27:15.848Z,5.75
2023-05-25T18:29:42.891Z,6.43
2023-05-25T18:32:09.773Z,6.20
2023-05-25T18:34:36.749Z,5.68
2023-05-25T18:37:03.613Z,6.35
2023-05-25T18:39:31.399Z,6.22
2023-05-25T18:41:58.265Z,5.65
2023-05-25T18:44:25.274Z,5.72
2023-05-25T18:46:53.580Z,6.40
2023-05-25T18:49:20.482Z,5.72
2023-05-25T18:51:47.838Z,6.05
2023-05-25T18:54:17.252Z,5.63
2023-05-25T18:56:44.120Z,6.28
2023-05-25T18:59:12.510Z,5.80
2023-05-25T19:01:39.414Z,5.55
2023-05-25T19:04:06.653Z,5.75
2023-05-25T19:06:33.682Z,5.53
2023-05-25T19:09:00.767Z,6.20
2023-05-25T19:11:27.837Z,6.40
2023-05-25T19:13:54.687Z,5.72
2023-05-25T19:16:22.099Z,5.68
2023-05-25T19:18:50.093Z,5.50
2023-05-25T19:21:17.060Z,6.55
2023-05-25T19:23:44.953Z,6.20
2023-05-25T19:26:11.917Z,6.65
2023-05-25T19:28:39.256Z,6.03
2023-05-25T19:31:07.125Z,5.80
2023-05-25T19:33:34.122Z,5.20
2023-05-25T19:36:01.193Z,5.90
2023-05-25T19:38:31.501Z,5.53
2023-05-25T19:41:07.670Z,6.35
2023-05-25T19:43:34.686Z,6.65
2023-05-25T19:46:03.413Z,6.05
2023-05-25T19:48:30.417Z,6.63
2023-05-25T19:50:57.738Z,6.30
2023-05-25T19:53:24.741Z,6.13
2023-05-25T19:55:51.645Z,6.32
2023-05-25T19:58:18.587Z,6.10
2023-05-25T20:00:45.483Z,6.50
2023-05-25T20:03:12.830Z,5.85
2023-05-25T20:05:40.294Z,6.47
2023-05-25T20:08:07.196Z,6.05
2023-05-25T20:10:38.954Z,5.88
2023-05-25T20:13:07.515Z,6.00
2023-05-25T20:15:34.938Z,6.15
2023-05-25T20:18:02.956Z,6.13
2023-05-25T20:20:29.918Z,6.15
2023-05-25T20:22:56.911Z,6.40
2023-05-25T20:25:23.888Z,5.75
2023-05-25T20:27:50.727Z,5.75
2023-05-25T20:30:17.886Z,6.03
2023-05-25T20:32:45.185Z,6.47
2023-05-25T20:35:13.469Z,6.53
2023-05-25T20:37:41.907Z,6.45
2023-05-25T20:40:09.313Z,6.38
2023-05-25T20:42:36.359Z,7.10
2023-05-25T20:45:03.891Z,6.53
2023-05-25T20:47:35.326Z,6.13
2023-05-25T20:50:02.248Z,6.70
2023-05-25T20:52:31.203Z,7.10
2023-05-25T20:55:00.854Z,6.88
2023-05-25T20:57:29.183Z,6.80
2023-05-25T20:59:59.833Z,6.63
2023-05-25T21:02:28.755Z,7.32
2023-05-25T21:04:56.133Z,6.13
2023-05-25T21:07:23.038Z,6.43
2023-05-25T21:09:49.886Z,6.20
2023-05-25T21:12:19.007Z,6.93
2023-05-25T21:14:45.986Z,6.55
2023-05-25T21:17:14.880Z,6.70
2023-05-25T21:19:41.906Z,7.03
2023-05-25T21:22:08.858Z,6.43
2023-05-25T21:24:35.976Z,7.05
2023-05-25T21:27:03.521Z,7.47
2023-05-25T21:29:30.402Z,7.18
2023-05-25T21:31:59.501Z,7.75
2023-05-25T21:34:26.580Z,8.07
2023-05-25T21:36:53.638Z,8.13
2023-05-25T21:39:20.514Z,7.82
2023-05-25T21:41:48.397Z,9.52
2023-05-25T21:44:15.515Z,9.48
2023-05-25T21:46:42.385Z,8.80
2023-05-25T21:49:09.309Z,9.40
2023-05-25T21:51:36.585Z,8.73
2023-05-25T21:54:05.464Z,8.75
2023-05-25T21:56:32.372Z,10.55
2023-05-25T21:58:59.228Z,8.95
2023-05-25T22:01:26.349Z,10.63
2023-05-25T22:03:53.248Z,10.32
2023-05-25T22:06:20.559Z,10.60
2023-05-25T22:08:47.651Z,10.20
2023-05-25T22:11:14.729Z,10.70
2023-05-25T22:13:41.508Z,12.30
2023-05-25T22:16:08.341Z,11.45
2023-05-25T22:18:37.828Z,12.38
2023-05-25T22:21:05.827Z,13.20
2023-05-25T22:23:32.669Z,12.57
2023-05-25T22:25:59.518Z,13.05
2023-05-25T22:28:26.555Z,13.40
2023-05-25T22:30:53.434Z,11.98
2023-05-25T22:33:23.540Z,12.88
2023-05-25T22:35:51.015Z,13.35
2023-05-25T22:38:17.910Z,13.52
2023-05-25T22:40:47.696Z,13.20
2023-05-25T22:43:15.024Z,13.20
2023-05-25T22:45:43.112Z,13.07
2023-05-25T22:48:10.977Z,13.10
2023-05-25T22:50:37.896Z,13.20
2023-05-25T22:53:04.761Z,13.10
2023-05-25T22:55:31.825Z,13.30
2023-05-25T22:57:58.846Z,14.38
2023-05-25T23:00:25.797Z,12.63
2023-05-25T23:02:52.827Z,15.93
2023-05-25T23:05:21.955Z,15.60
2023-05-25T23:07:49.887Z,16.40
2023-05-25T23:10:16.896Z,16.02
2023-05-25T23:12:43.884Z,17.20
2023-05-25T23:15:11.343Z,16.90
2023-05-25T23:17:38.407Z,15.63
2023-05-25T23:20:09.862Z,17.02
2023-05-25T23:22:36.870Z,16.73
2023-05-25T23:25:03.829Z,19.95
2023-05-25T23:27:32.460Z,21.45
2023-05-25T23:29:59.367Z,20.88
2023-05-25T23:32:26.272Z,22.17
2023-05-25T23:34:53.176Z,22.08
2023-05-25T23:37:20.030Z,22.15
2023-05-25T23:39:46.884Z,22.70
2023-05-25T23:42:15.553Z,23.38
2023-05-25T23:44:42.775Z,21.35
2023-05-25T23:47:10.530Z,23.85
2023-05-25T23:49:37.407Z,23.73
2023-05-25T23:52:06.133Z,18.02
2023-05-25T23:54:32.996Z,23.80
2023-05-25T23:56:59.904Z,19.42
2023-05-25T23:59:26.807Z,16.98
